createdAt,value
2018-02-23T00:01:56.348Z,86.37
2018-02-23T00:04:24.815Z,86.34
2018-02-23T00:06:54.830Z,86.28
2018-02-23T00:09:25.802Z,86.16
2018-02-23T00:11:54.270Z,86.25
2018-02-23T00:14:22.613Z,86.28
2018-02-23T00:16:52.700Z,86.30
2018-02-23T00:19:23.716Z,86.26
2018-02-23T00:21:52.086Z,86.12
2018-02-23T00:24:20.460Z,86.27
2018-02-23T00:26:50.981Z,86.17
2018-02-23T00:29:22.764Z,86.29
2018-02-23T00:31:51.111Z,86.15
2018-02-23T00:34:19.409Z,86.11
2018-02-23T00:36:47.906Z,86.28
2018-02-23T00:39:16.562Z,86.22
2018-02-23T00:41:47.632Z,86.14
2018-02-23T00:44:16.014Z,86.07
2018-02-23T00:46:44.355Z,86.07
2018-02-23T00:49:12.767Z,86.18
2018-02-23T00:51:41.113Z,86.06
2018-02-23T00:54:09.532Z,86.13
2018-02-23T00:56:38.723Z,86.05
2018-02-23T00:59:07.922Z,86.09
2018-02-23T01:01:36.259Z,86.01
2018-02-23T01:04:04.577Z,86.02
2018-02-23T01:06:32.927Z,86.01
2018-02-23T01:09:01.270Z,86.03
2018-02-23T01:11:29.644Z,86.11
2018-02-23T01:13:57.978Z,86.18
2018-02-23T01:16:26.327Z,86.13
2018-02-23T01:18:54.635Z,86.10
2018-02-23T01:21:24.628Z,86.29
2018-02-23T01:23:52.997Z,86.30
2018-02-23T01:26:21.318Z,86.40
2018-02-23T01:28:49.680Z,86.57
2018-02-23T01:31:22.055Z,86.54
2018-02-23T01:33:52.549Z,86.55
2018-02-23T01:36:21.100Z,86.59
2018-02-23T01:38:50.204Z,86.77
2018-02-23T01:41:18.581Z,86.84
2018-02-23T01:43:46.923Z,86.95
2018-02-23T01:46:15.984Z,87.04
2018-02-23T01:48:44.433Z,87.10
2018-02-23T01:51:12.761Z,87.30
2018-02-23T01:53:41.185Z,87.44
2018-02-23T01:56:09.523Z,87.42
2018-02-23T01:58:38.620Z,87.36
2018-02-23T02:01:07.707Z,87.44
2018-02-23T02:03:36.811Z,87.63
2018-02-23T02:06:05.201Z,87.65
2018-02-23T02:08:35.164Z,87.77
2018-02-23T02:11:05.426Z,87.85
2018-02-23T02:13:34.701Z,87.69
2018-02-23T02:16:03.090Z,87.73
2018-02-23T02:18:31.428Z,87.58
2018-02-23T02:21:02.432Z,87.30
2018-02-23T02:23:30.770Z,87.61
2018-02-23T02:25:59.135Z,87.19
2018-02-23T02:28:27.436Z,86.58
2018-02-23T02:30:59.338Z,86.42
2018-02-23T02:33:27.691Z,86.08
2018-02-23T02:35:56.245Z,85.64
2018-02-23T02:38:24.560Z,85.71
2018-02-23T02:40:52.894Z,85.69
2018-02-23T02:43:21.248Z,85.32
2018-02-23T02:45:49.552Z,85.25
2018-02-23T02:48:20.052Z,85.09
2018-02-23T02:50:48.470Z,85.00
2018-02-23T02:53:17.181Z,84.89
2018-02-23T02:55:45.523Z,84.61
2018-02-23T02:58:13.908Z,84.51
2018-02-23T03:00:44.538Z,84.25
2018-02-23T03:03:13.868Z,84.03
2018-02-23T03:05:42.231Z,84.15
2018-02-23T03:08:10.583Z,83.98
2018-02-23T03:10:39.246Z,83.71
2018-02-23T03:13:07.552Z,83.64
2018-02-23T03:15:35.931Z,83.72
2018-02-23T03:18:04.263Z,83.79
2018-02-23T03:20:32.592Z,83.79
2018-02-23T03:23:00.964Z,83.69
2018-02-23T03:25:29.362Z,83.51
2018-02-23T03:27:57.838Z,83.37
2018-02-23T03:30:26.206Z,83.10
2018-02-23T03:32:54.625Z,82.76
2018-02-23T03:35:23.717Z,82.88
2018-02-23T03:37:52.054Z,82.68
2018-02-23T03:40:20.453Z,82.69
2018-02-23T03:42:48.812Z,82.46
2018-02-23T03:45:18.870Z,82.39
2018-02-23T03:47:50.061Z,82.60
2018-02-23T03:50:18.511Z,82.31
2018-02-23T03:52:46.784Z,82.47
2018-02-23T03:55:16.839Z,82.43
2018-02-23T03:57:45.226Z,82.30
2018-02-23T04:00:15.232Z,82.42
2018-02-23T04:02:44.690Z,82.14
2018-02-23T04:05:14.014Z,82.23
2018-02-23T04:07:44.079Z,82.24
2018-02-23T04:10:12.390Z,82.28
2018-02-23T04:12:42.644Z,82.58
2018-02-23T04:15:13.699Z,82.34
2018-02-23T04:17:46.001Z,82.30
2018-02-23T04:20:14.377Z,82.12
2018-02-23T04:22:44.458Z,81.73
2018-02-23T04:25:12.844Z,82.08
2018-02-23T04:27:41.215Z,82.15
2018-02-23T04:30:09.556Z,82.23
2018-02-23T04:32:37.958Z,82.57
2018-02-23T04:35:06.314Z,82.57
2018-02-23T04:37:34.645Z,82.40
2018-02-23T04:40:04.867Z,82.37
2018-02-23T04:42:35.557Z,82.65
2018-02-23T04:45:04.035Z,82.49
2018-02-23T04:47:34.083Z,82.52
2018-02-23T04:59:48.317Z,82.57
2018-02-23T05:02:16.633Z,82.63
2018-02-23T05:04:44.941Z,82.65
2018-02-23T05:07:13.381Z,82.55
2018-02-23T05:09:41.732Z,82.61
2018-02-23T05:12:12.030Z,82.67
2018-02-23T05:14:42.789Z,82.73
2018-02-23T05:17:11.103Z,82.71
2018-02-23T05:19:39.623Z,82.46
2018-02-23T05:22:08.041Z,82.54
2018-02-23T05:24:36.507Z,82.79
2018-02-23T05:27:04.867Z,82.58
2018-02-23T05:29:33.301Z,82.79
2018-02-23T05:32:02.716Z,82.92
2018-02-23T05:34:31.065Z,82.78
2018-02-23T05:37:00.389Z,82.80
2018-02-23T05:39:28.698Z,83.06
2018-02-23T05:41:57.001Z,82.88
2018-02-23T05:44:25.411Z,82.95
2018-02-23T05:46:53.755Z,82.79
2018-02-23T05:49:22.114Z,83.03
2018-02-23T05:51:50.515Z,82.90
2018-02-23T05:54:18.835Z,83.15
2018-02-23T05:56:47.975Z,83.24
2018-02-23T05:59:16.369Z,83.20
2018-02-23T06:01:44.693Z,83.39
2018-02-23T06:04:13.028Z,83.16
2018-02-23T06:06:41.325Z,83.19
2018-02-23T06:09:09.753Z,83.29
2018-02-23T06:11:38.043Z,83.19
2018-02-23T06:14:06.373Z,83.27
2018-02-23T06:16:34.997Z,83.38
2018-02-23T06:19:03.370Z,83.55
2018-02-23T06:21:31.725Z,83.59
2018-02-23T06:24:02.207Z,83.65
2018-02-23T06:26:30.665Z,83.88
2018-02-23T06:28:58.997Z,83.77
2018-02-23T06:31:27.386Z,83.95
2018-02-23T06:33:55.765Z,83.59
2018-02-23T06:36:25.828Z,83.53
2018-02-23T06:38:54.383Z,83.72
2018-02-23T06:41:24.405Z,83.64
2018-02-23T06:43:54.708Z,83.65
2018-02-23T06:46:24.137Z,83.56
2018-02-23T06:48:52.503Z,83.64
2018-02-23T06:51:21.017Z,83.57
2018-02-23T06:53:50.394Z,83.30
2018-02-23T06:56:18.751Z,83.13
2018-02-23T06:58:47.099Z,82.89
2018-02-23T07:01:16.227Z,81.46
2018-02-23T07:03:44.537Z,81.42
2018-02-23T07:06:13.711Z,80.89
2018-02-23T07:08:42.064Z,80.87
2018-02-23T07:11:10.490Z,80.60
2018-02-23T07:13:38.751Z,80.51
2018-02-23T07:16:07.471Z,80.40
2018-02-23T07:18:35.832Z,79.88
2018-02-23T07:21:05.980Z,79.78
2018-02-23T07:23:34.493Z,79.87
2018-02-23T07:26:02.876Z,78.99
2018-02-23T07:28:31.271Z,79.27
2018-02-23T07:30:59.859Z,79.19
2018-02-23T07:33:28.224Z,79.07
2018-02-23T07:35:56.514Z,79.29
2018-02-23T07:38:25.307Z,79.07
2018-02-23T07:40:55.842Z,79.28
2018-02-23T07:43:24.888Z,79.46
2018-02-23T07:45:54.930Z,79.47
2018-02-23T07:48:23.295Z,79.22
2018-02-23T07:50:51.796Z,78.97
2018-02-23T07:53:20.219Z,79.30
2018-02-23T07:55:48.577Z,79.43
2018-02-23T07:58:16.868Z,79.43
2018-02-23T08:00:47.016Z,79.24
2018-02-23T08:03:18.075Z,79.02
2018-02-23T08:05:47.562Z,79.21
2018-02-23T08:08:15.957Z,79.12
2018-02-23T08:10:44.434Z,78.96
2018-02-23T08:13:14.594Z,78.92
2018-02-23T08:15:45.595Z,78.76
2018-02-23T08:18:14.022Z,78.68
2018-02-23T08:20:42.459Z,78.54
2018-02-23T08:23:10.837Z,78.65
2018-02-23T08:25:39.224Z,78.63
2018-02-23T08:28:07.599Z,78.37
2018-02-23T08:30:35.966Z,78.13
2018-02-23T08:33:04.324Z,78.39
2018-02-23T08:35:32.746Z,78.88
2018-02-23T08:38:01.103Z,78.04
2018-02-23T08:40:29.561Z,78.02
2018-02-23T08:42:58.625Z,78.03
2018-02-23T08:45:26.983Z,77.71
2018-02-23T08:47:55.310Z,77.64
2018-02-23T08:50:43.584Z,77.90
2018-02-23T08:53:11.868Z,77.67
2018-02-23T08:55:40.296Z,77.41
2018-02-23T09:00:49.078Z,77.19
2018-02-23T09:03:17.399Z,77.49
2018-02-23T09:05:47.554Z,77.47
2018-02-23T09:08:15.849Z,77.47
2018-02-23T09:10:44.123Z,77.56
2018-02-23T09:13:12.392Z,77.32
2018-02-23T09:15:40.623Z,77.40
2018-02-23T09:18:08.926Z,77.56
2018-02-23T09:20:37.189Z,77.62
2018-02-23T09:23:05.464Z,77.79
2018-02-23T09:25:33.734Z,77.48
2018-02-23T09:28:02.038Z,77.69
2018-02-23T09:30:30.260Z,77.43
2018-02-23T09:32:58.482Z,77.39
2018-02-23T09:35:26.727Z,77.32
2018-02-23T09:37:54.991Z,77.13
2018-02-23T09:40:23.342Z,77.31
2018-02-23T09:42:51.564Z,76.91
2018-02-23T09:45:19.836Z,77.33
2018-02-23T09:47:48.084Z,77.36
2018-02-23T09:50:16.420Z,77.29
2018-02-23T09:52:44.643Z,76.97
2018-02-23T09:55:12.896Z,76.61
2018-02-23T09:57:41.194Z,76.59
2018-02-23T10:00:09.464Z,76.40
2018-02-23T10:02:37.694Z,76.17
2018-02-23T10:05:05.939Z,76.25
2018-02-23T10:07:34.196Z,76.06
2018-02-23T10:10:02.445Z,76.53
2018-02-23T10:12:31.092Z,76.18
2018-02-23T10:14:59.392Z,75.60
2018-02-23T10:17:27.656Z,76.17
2018-02-23T10:19:55.938Z,76.08
2018-02-23T10:22:24.191Z,75.42
2018-02-23T10:24:52.486Z,75.99
2018-02-23T10:27:20.712Z,76.33
2018-02-23T10:29:49.038Z,76.16
2018-02-23T10:32:17.279Z,75.84
2018-02-23T10:34:45.548Z,75.89
2018-02-23T10:37:13.894Z,75.94
2018-02-23T10:39:42.129Z,76.24
2018-02-23T10:42:10.386Z,76.27
2018-02-23T10:44:38.615Z,75.92
2018-02-23T10:47:06.885Z,75.71
2018-02-23T10:49:35.145Z,75.68
2018-02-23T10:52:03.428Z,75.29
2018-02-23T10:54:31.668Z,75.36
2018-02-23T10:56:59.956Z,75.34
2018-02-23T10:59:28.213Z,74.55
2018-02-23T11:01:56.469Z,75.14
2018-02-23T11:04:24.724Z,74.86
2018-02-23T11:06:52.952Z,74.72
2018-02-23T11:09:21.237Z,74.86
2018-02-23T11:11:49.489Z,74.58
2018-02-23T11:14:17.762Z,74.21
2018-02-23T11:16:46.028Z,74.08
2018-02-23T11:19:14.262Z,73.89
2018-02-23T11:21:42.816Z,73.88
2018-02-23T11:24:11.162Z,74.10
2018-02-23T11:26:39.454Z,73.87
2018-02-23T11:29:07.702Z,73.66
2018-02-23T11:31:36.252Z,73.06
2018-02-23T11:34:04.503Z,73.04
2018-02-23T11:36:32.770Z,73.61
2018-02-23T11:39:01.010Z,73.28
2018-02-23T11:41:29.308Z,73.14
2018-02-23T11:43:57.624Z,72.94
2018-02-23T11:46:26.140Z,73.35
2018-02-23T11:48:54.404Z,73.28
2018-02-23T11:51:22.657Z,73.06
2018-02-23T11:53:50.936Z,72.77
2018-02-23T11:56:19.171Z,72.84
2018-02-23T11:58:47.441Z,72.99
2018-02-23T12:01:15.674Z,72.96
2018-02-23T12:03:43.954Z,72.73
2018-02-23T12:06:12.169Z,72.92
2018-02-23T12:08:41.019Z,72.86
2018-02-23T12:11:09.255Z,72.40
2018-02-23T12:13:37.504Z,72.86
2018-02-23T12:16:05.747Z,72.59
2018-02-23T12:18:33.982Z,72.16
2018-02-23T12:21:02.271Z,72.56
2018-02-23T12:23:30.514Z,72.83
2018-02-23T12:25:58.765Z,72.49
2018-02-23T12:28:27.006Z,72.11
2018-02-23T12:30:55.269Z,71.87
2018-02-23T12:33:23.552Z,71.75
2018-02-23T12:35:52.243Z,72.15
2018-02-23T12:38:20.495Z,72.05
2018-02-23T12:40:48.782Z,71.49
2018-02-23T12:43:17.039Z,71.50
2018-02-23T12:45:45.273Z,71.72
2018-02-23T12:48:13.639Z,71.73
2018-02-23T12:50:41.911Z,71.90
2018-02-23T12:53:10.224Z,71.92
2018-02-23T12:55:38.969Z,72.00
2018-02-23T12:58:07.213Z,71.49
2018-02-23T13:00:35.693Z,71.96
2018-02-23T13:03:03.954Z,71.75
2018-02-23T13:05:32.197Z,71.86
2018-02-23T13:08:00.445Z,71.70
2018-02-23T13:10:28.715Z,71.39
2018-02-23T13:12:56.959Z,70.67
2018-02-23T13:15:25.190Z,70.79
2018-02-23T13:17:53.439Z,71.08
2018-02-23T13:20:21.708Z,70.67
2018-02-23T13:22:49.983Z,70.68
2018-02-23T13:25:18.195Z,69.98
2018-02-23T13:27:52.104Z,70.19
2018-02-23T13:30:20.338Z,69.88
2018-02-23T13:32:48.657Z,70.08
2018-02-23T13:35:16.891Z,70.49
2018-02-23T13:37:45.177Z,70.22
2018-02-23T13:40:13.432Z,69.41
2018-02-23T13:42:41.678Z,69.52
2018-02-23T13:45:09.933Z,69.46
2018-02-23T13:47:38.171Z,69.60
2018-02-23T13:50:06.482Z,69.04
2018-02-23T13:52:34.745Z,68.84
2018-02-23T13:55:03.054Z,69.05
2018-02-23T13:57:31.360Z,69.42
2018-02-23T13:59:59.613Z,68.99
2018-02-23T14:02:27.893Z,68.96
2018-02-23T14:04:56.118Z,68.96
2018-02-23T14:07:29.911Z,69.15
2018-02-23T14:09:58.107Z,68.76
2018-02-23T14:12:26.381Z,68.77
2018-02-23T14:14:54.632Z,68.76
2018-02-23T14:17:22.935Z,68.89
2018-02-23T14:19:51.196Z,68.85
2018-02-23T14:22:19.595Z,68.45
2018-02-23T14:24:47.856Z,68.82
2018-02-23T14:27:16.146Z,68.57
2018-02-23T14:29:44.435Z,68.70
2018-02-23T14:32:12.673Z,68.42
2018-02-23T14:34:40.904Z,68.96
2018-02-23T14:37:09.968Z,68.17
2018-02-23T14:39:38.246Z,67.73
2018-02-23T14:42:06.502Z,68.21
2018-02-23T14:44:34.739Z,68.04
2018-02-23T14:47:03.224Z,68.11
2018-02-23T14:49:31.452Z,68.76
2018-02-23T14:51:59.762Z,68.51
2018-02-23T14:54:28.012Z,68.43
2018-02-23T14:56:56.346Z,68.71
2018-02-23T14:59:24.582Z,68.73
2018-02-23T15:01:52.830Z,68.45
2018-02-23T15:04:21.081Z,68.44
2018-02-23T15:06:49.365Z,68.39
2018-02-23T15:09:17.682Z,68.68
2018-02-23T15:11:45.946Z,69.21
2018-02-23T15:14:14.219Z,68.98
2018-02-23T15:16:42.463Z,68.76
2018-02-23T15:19:10.748Z,69.20
2018-02-23T15:21:38.984Z,69.10
2018-02-23T15:24:07.311Z,69.00
2018-02-23T15:26:35.546Z,69.43
2018-02-23T15:29:03.780Z,69.22
2018-02-23T15:31:44.872Z,69.71
2018-02-23T15:34:13.266Z,69.52
2018-02-23T15:36:41.522Z,70.09
2018-02-23T15:39:09.755Z,69.76
2018-02-23T15:41:38.034Z,70.20
2018-02-23T15:44:06.298Z,70.35
2018-02-23T15:46:34.666Z,70.70
2018-02-23T15:49:18.862Z,70.49
2018-02-23T15:51:50.724Z,70.80
2018-02-23T15:54:18.966Z,70.89
2018-02-23T15:56:47.258Z,70.64
2018-02-23T15:59:16.720Z,70.91
2018-02-23T16:01:44.978Z,71.00
2018-02-23T16:04:13.225Z,71.12
2018-02-23T16:06:41.466Z,70.91
2018-02-23T16:09:09.735Z,70.72
2018-02-23T16:11:37.942Z,70.37
2018-02-23T16:14:06.218Z,70.77
2018-02-23T16:16:34.512Z,70.84
2018-02-23T16:19:02.800Z,71.09
2018-02-23T16:21:31.022Z,71.23
2018-02-23T16:23:59.257Z,71.30
2018-02-23T16:26:27.536Z,71.34
2018-02-23T16:28:56.027Z,71.65
2018-02-23T16:31:24.365Z,71.94
2018-02-23T16:33:52.626Z,72.18
2018-02-23T16:36:20.926Z,71.91
2018-02-23T16:38:49.197Z,71.79
2018-02-23T16:41:17.461Z,72.22
2018-02-23T16:43:45.714Z,72.02
2018-02-23T16:46:14.009Z,72.01
2018-02-23T16:48:42.359Z,72.27
2018-02-23T16:51:10.639Z,72.65
2018-02-23T16:53:38.951Z,72.65
2018-02-23T16:56:07.190Z,72.69
2018-02-23T16:58:35.456Z,72.79
2018-02-23T17:01:03.700Z,73.07
2018-02-23T17:03:32.023Z,73.13
2018-02-23T17:06:00.354Z,73.11
2018-02-23T17:08:28.604Z,73.32
2018-02-23T17:10:56.890Z,73.26
2018-02-23T17:13:25.122Z,73.61
2018-02-23T17:15:53.383Z,73.80
2018-02-23T17:18:21.674Z,73.75
2018-02-23T17:20:49.925Z,73.78
2018-02-23T17:23:18.187Z,74.16
2018-02-23T17:25:46.442Z,74.06
2018-02-23T17:28:14.672Z,74.17
2018-02-23T17:30:42.898Z,74.32
2018-02-23T17:33:11.245Z,73.96
2018-02-23T17:35:39.508Z,73.82
2018-02-23T17:38:07.769Z,74.17
2018-02-23T17:40:36.103Z,74.45
2018-02-23T17:43:04.386Z,74.28
2018-02-23T17:45:32.645Z,74.55
2018-02-23T17:48:00.932Z,74.75
2018-02-23T17:50:29.203Z,74.65
2018-02-23T17:52:57.464Z,74.50
2018-02-23T17:55:25.937Z,74.95
2018-02-23T17:57:54.265Z,75.01
2018-02-23T18:00:22.569Z,75.01
2018-02-23T18:02:50.925Z,74.83
2018-02-23T18:05:19.624Z,74.83
2018-02-23T18:07:47.900Z,75.02
2018-02-23T18:10:16.186Z,75.30
2018-02-23T18:12:44.465Z,75.08
2018-02-23T18:15:12.717Z,75.34
2018-02-23T18:17:41.033Z,75.29
2018-02-23T18:20:09.337Z,75.48
2018-02-23T18:22:37.584Z,75.66
2018-02-23T18:25:05.819Z,75.84
2018-02-23T18:27:34.106Z,75.92
2018-02-23T18:30:02.331Z,76.00
2018-02-23T18:32:30.597Z,76.17
2018-02-23T18:34:58.881Z,76.02
2018-02-23T18:37:27.155Z,75.95
2018-02-23T18:39:55.440Z,76.24
2018-02-23T18:42:23.677Z,76.10
2018-02-23T18:44:51.990Z,76.21
2018-02-23T18:47:20.268Z,76.37
2018-02-23T18:49:48.514Z,76.43
2018-02-23T18:52:16.779Z,76.43
2018-02-23T18:54:45.025Z,76.74
2018-02-23T18:57:13.351Z,76.89
2018-02-23T18:59:41.593Z,77.02
2018-02-23T19:02:09.895Z,77.11
2018-02-23T19:04:38.148Z,76.65
2018-02-23T19:07:06.450Z,76.70
2018-02-23T19:09:34.736Z,76.78
2018-02-23T19:12:03.003Z,77.12
2018-02-23T19:14:31.270Z,77.04
2018-02-23T19:16:59.573Z,77.17
2018-02-23T19:19:27.850Z,77.15
2018-02-23T19:21:56.144Z,76.86
2018-02-23T19:24:24.424Z,76.66
2018-02-23T19:26:52.686Z,76.71
2018-02-23T19:29:20.975Z,76.10
2018-02-23T19:31:49.255Z,75.32
2018-02-23T19:34:17.606Z,74.56
2018-02-23T19:36:46.008Z,73.96
2018-02-23T19:39:14.272Z,73.03
2018-02-23T19:41:42.595Z,72.75
2018-02-23T19:44:10.872Z,72.90
2018-02-23T19:46:39.190Z,72.92
2018-02-23T19:49:07.536Z,72.69
2018-02-23T19:51:35.918Z,73.00
2018-02-23T19:54:04.269Z,72.94
2018-02-23T19:56:32.588Z,73.34
2018-02-23T19:59:01.256Z,73.20
2018-02-23T20:01:29.758Z,73.16
2018-02-23T20:03:58.071Z,73.46
2018-02-23T20:06:26.640Z,73.70
2018-02-23T20:08:54.974Z,73.24
2018-02-23T20:11:23.436Z,72.75
2018-02-23T20:13:51.828Z,72.48
2018-02-23T20:16:20.160Z,72.49
2018-02-23T20:18:48.549Z,72.35
2018-02-23T20:21:16.872Z,73.03
2018-02-23T20:23:45.202Z,72.86
2018-02-23T20:26:13.627Z,72.58
2018-02-23T20:28:42.011Z,72.83
2018-02-23T20:31:10.396Z,72.68
2018-02-23T20:33:38.705Z,72.46
2018-02-23T20:36:06.975Z,72.33
2018-02-23T20:38:35.341Z,72.14
2018-02-23T20:41:03.689Z,72.28
2018-02-23T20:43:32.026Z,72.34
2018-02-23T20:46:00.303Z,72.66
2018-02-23T20:48:28.669Z,72.49
2018-02-23T20:50:56.979Z,72.60
2018-02-23T20:53:25.321Z,72.88
2018-02-23T20:55:54.674Z,72.67
2018-02-23T20:58:22.937Z,72.20
2018-02-23T21:00:51.263Z,72.41
2018-02-23T21:03:19.528Z,72.70
2018-02-23T21:05:47.929Z,72.99
2018-02-23T21:08:16.226Z,72.77
2018-02-23T21:10:44.532Z,72.49
2018-02-23T21:13:12.821Z,72.81
2018-02-23T21:15:41.131Z,72.92
2018-02-23T21:18:09.446Z,72.88
2018-02-23T21:20:37.685Z,72.43
2018-02-23T21:23:05.948Z,73.07
2018-02-23T21:25:34.192Z,73.17
2018-02-23T21:28:02.500Z,73.31
2018-02-23T21:30:30.760Z,73.04
2018-02-23T21:32:59.034Z,72.70
2018-02-23T21:35:27.325Z,72.51
2018-02-23T21:37:55.658Z,72.44
2018-02-23T21:40:23.922Z,72.58
2018-02-23T21:42:52.174Z,72.37
2018-02-23T21:45:20.538Z,73.03
2018-02-23T21:47:48.827Z,73.28
2018-02-23T21:50:17.118Z,73.39
2018-02-23T21:52:45.372Z,73.62
2018-02-23T21:55:13.657Z,73.29
2018-02-23T21:57:41.948Z,73.43
2018-02-23T22:00:10.215Z,73.40
2018-02-23T22:02:38.496Z,73.84
2018-02-23T22:05:06.746Z,74.25
2018-02-23T22:07:35.035Z,73.97
2018-02-23T22:10:03.300Z,74.06
2018-02-23T22:12:31.597Z,74.26
2018-02-23T22:14:59.885Z,73.96
2018-02-23T22:17:28.168Z,74.01
2018-02-23T22:19:56.440Z,74.12
2018-02-23T22:22:24.717Z,73.80
2018-02-23T22:24:52.992Z,74.00
2018-02-23T22:27:21.399Z,74.15
2018-02-23T22:29:49.714Z,74.14
2018-02-23T22:32:17.976Z,73.87
2018-02-23T22:34:46.284Z,73.95
2018-02-23T22:37:14.614Z,74.17
2018-02-23T22:39:42.911Z,74.28
2018-02-23T22:42:11.141Z,73.86
2018-02-23T22:44:39.392Z,73.68
2018-02-23T22:47:07.670Z,73.83
2018-02-23T22:49:35.882Z,73.86
2018-02-23T22:52:04.135Z,73.30
2018-02-23T22:54:32.353Z,73.61
2018-02-23T22:57:00.646Z,73.76
2018-02-23T22:59:28.944Z,73.68
2018-02-23T23:01:57.209Z,73.65
2018-02-23T23:04:25.501Z,73.80
2018-02-23T23:06:53.749Z,73.80
2018-02-23T23:09:22.014Z,74.01
2018-02-23T23:11:50.278Z,74.04
2018-02-23T23:14:18.601Z,73.57
2018-02-23T23:16:46.851Z,73.64
2018-02-23T23:19:15.097Z,73.97
2018-02-23T23:21:43.375Z,74.12
2018-02-23T23:24:11.622Z,73.77
2018-02-23T23:26:39.910Z,73.85
2018-02-23T23:29:08.198Z,73.88
2018-02-23T23:31:36.491Z,73.75
2018-02-23T23:34:04.783Z,73.76
2018-02-23T23:36:33.051Z,73.87
2018-02-23T23:39:01.362Z,73.74
2018-02-23T23:41:29.637Z,73.97
2018-02-23T23:43:57.912Z,73.67
2018-02-23T23:46:26.175Z,73.66
2018-02-23T23:48:54.836Z,73.67
2018-02-23T23:51:23.090Z,73.58
2018-02-23T23:53:51.347Z,73.64
2018-02-23T23:56:19.621Z,73.45
2018-02-23T23:58:47.849Z,74.01
